createdAt,value
2023-04-05T00:01:24.868Z,5.43
2023-04-05T00:03:46.776Z,6.60
2023-04-05T00:06:07.864Z,6.55
2023-04-05T00:08:28.907Z,5.57
2023-04-05T00:10:50.129Z,6.07
2023-04-05T00:13:10.157Z,7.07
2023-04-05T00:15:33.015Z,6.35
2023-04-05T00:17:53.684Z,5.50
2023-04-05T00:20:14.120Z,6.57
2023-04-05T00:22:35.593Z,6.22
2023-04-05T00:24:55.577Z,6.60
2023-04-05T00:27:15.631Z,5.63
2023-04-05T00:29:35.950Z,4.97
2023-04-05T00:31:56.138Z,5.30
2023-04-05T00:34:16.396Z,5.65
2023-04-05T00:36:36.707Z,6.93
2023-04-05T00:38:56.663Z,6.57
2023-04-05T00:41:16.797Z,4.68
2023-04-05T00:43:37.026Z,6.97
2023-04-05T00:45:57.338Z,6.32
2023-04-05T00:48:17.759Z,6.40
2023-04-05T00:50:38.399Z,6.50
2023-04-05T00:52:58.622Z,5.97
2023-04-05T00:55:19.042Z,5.85
2023-04-05T00:57:39.511Z,8.63
2023-04-05T01:00:12.121Z,7.03
2023-04-05T01:02:33.306Z,6.28
2023-04-05T01:04:55.666Z,6.10
2023-04-05T01:07:27.881Z,7.72
2023-04-05T01:09:58.844Z,7.53
2023-04-05T01:12:19.908Z,5.93
2023-04-05T01:14:50.702Z,7.38
2023-04-05T01:17:10.843Z,6.30
2023-04-05T01:19:34.478Z,7.60
2023-04-05T01:22:12.996Z,5.68
2023-04-05T01:24:46.124Z,7.07
2023-04-05T01:27:09.057Z,6.75
2023-04-05T01:32:08.192Z,7.75
2023-04-05T01:34:40.965Z,6.88
2023-04-05T01:37:07.199Z,6.18
2023-04-05T01:39:28.458Z,6.85
2023-04-05T01:41:48.911Z,5.25
2023-04-05T01:44:09.075Z,5.78
2023-04-05T01:46:29.284Z,6.63
2023-04-05T01:48:49.690Z,6.22
2023-04-05T01:51:10.290Z,6.90
2023-04-05T01:53:30.334Z,6.35
2023-04-05T01:55:50.661Z,6.30
2023-04-05T01:58:10.995Z,7.32
2023-04-05T02:00:31.976Z,5.80
2023-04-05T02:02:52.467Z,7.07
2023-04-05T02:05:12.741Z,7.35
2023-04-05T02:07:32.931Z,7.68
2023-04-05T02:09:53.218Z,7.75
2023-04-05T02:12:13.369Z,6.85
2023-04-05T02:14:34.680Z,6.85
2023-04-05T02:16:55.935Z,6.20
2023-04-05T02:19:22.314Z,7.50
2023-04-05T02:21:42.348Z,5.50
2023-04-05T02:24:02.642Z,8.20
2023-04-05T02:26:22.844Z,6.22
2023-04-05T02:28:43.013Z,8.02
2023-04-05T02:31:08.239Z,7.30
2023-04-05T02:33:29.080Z,7.07
2023-04-05T02:35:53.427Z,6.50
2023-04-05T02:38:13.816Z,6.80
2023-04-05T02:40:34.589Z,7.40
2023-04-05T02:42:54.768Z,11.10
2023-04-05T02:45:14.956Z,6.07
2023-04-05T02:47:35.679Z,7.38
2023-04-05T02:49:56.248Z,6.45
2023-04-05T02:52:16.418Z,6.82
2023-04-05T02:54:36.775Z,7.68
2023-04-05T02:56:57.062Z,7.47
2023-04-05T02:59:17.142Z,7.50
2023-04-05T03:01:37.563Z,6.07
2023-04-05T03:03:57.711Z,5.95
2023-04-05T03:06:20.063Z,7.18
2023-04-05T03:08:44.728Z,8.50
2023-04-05T03:11:06.108Z,6.90
2023-04-05T03:13:26.723Z,6.75
2023-04-05T03:15:46.955Z,7.43
2023-04-05T03:18:07.181Z,7.57
2023-04-05T03:20:27.493Z,6.80
2023-04-05T03:22:47.722Z,8.00
2023-04-05T03:25:07.885Z,8.40
2023-04-05T03:27:28.517Z,5.78
2023-04-05T03:29:48.763Z,4.32
2023-04-05T03:32:11.253Z,7.07
2023-04-05T03:34:31.610Z,7.05
2023-04-05T03:36:52.393Z,5.93
2023-04-05T03:39:12.877Z,6.72
2023-04-05T03:41:32.854Z,5.55
2023-04-05T03:43:52.987Z,8.63
2023-04-05T03:46:13.273Z,8.43
2023-04-05T03:48:33.454Z,7.10
2023-04-05T03:50:53.736Z,6.72
2023-04-05T03:53:16.786Z,9.93
2023-04-05T03:55:37.012Z,7.00
2023-04-05T03:57:57.101Z,5.78
2023-04-05T04:00:17.304Z,7.03
2023-04-05T04:02:37.532Z,6.13
2023-04-05T04:04:57.870Z,6.78
2023-04-05T04:07:18.110Z,8.70
2023-04-05T04:09:38.218Z,8.20
2023-04-05T04:11:58.548Z,7.05
2023-04-05T04:14:18.617Z,8.00
2023-04-05T04:16:38.794Z,7.13
2023-04-05T04:18:59.164Z,7.18
2023-04-05T04:21:20.714Z,7.55
2023-04-05T04:23:45.313Z,7.35
2023-04-05T04:26:05.720Z,7.10
2023-04-05T04:28:27.213Z,6.50
2023-04-05T04:30:47.348Z,7.43
2023-04-05T04:33:08.954Z,6.88
2023-04-05T04:35:30.475Z,6.82
2023-04-05T04:37:58.044Z,6.80
2023-04-05T04:40:18.232Z,7.78
2023-04-05T04:42:38.259Z,7.15
2023-04-05T04:45:01.922Z,6.90
2023-04-05T04:47:22.520Z,8.10
2023-04-05T04:49:45.937Z,8.43
2023-04-05T04:54:28.669Z,8.68
2023-04-05T04:56:49.177Z,12.13
2023-04-05T04:59:09.471Z,9.20
2023-04-05T05:01:30.004Z,8.50
2023-04-05T05:03:50.893Z,6.32
2023-04-05T05:06:11.374Z,7.65
2023-04-05T05:08:31.837Z,7.22
2023-04-05T05:10:52.641Z,7.15
2023-04-05T05:13:12.779Z,6.97
2023-04-05T05:15:32.970Z,7.28
2023-04-05T05:17:54.601Z,8.43
2023-04-05T05:20:15.043Z,7.10
2023-04-05T05:22:35.837Z,7.13
2023-04-05T05:24:56.080Z,7.43
2023-04-05T05:27:16.279Z,6.40
2023-04-05T05:29:36.426Z,6.78
2023-04-05T05:31:56.540Z,10.82
2023-04-05T05:34:17.340Z,7.38
2023-04-05T05:36:37.725Z,8.27
2023-04-05T05:38:57.833Z,8.00
2023-04-05T05:41:18.153Z,8.43
2023-04-05T05:43:38.264Z,9.10
2023-04-05T05:46:00.875Z,6.75
2023-04-05T05:48:21.572Z,7.72
2023-04-05T05:50:42.235Z,7.60
2023-04-05T05:53:02.840Z,5.78
2023-04-05T05:55:23.161Z,8.52
2023-04-05T05:57:43.355Z,7.80
2023-04-05T06:00:08.317Z,8.35
2023-04-05T06:02:28.445Z,6.90
2023-04-05T06:04:48.993Z,7.75
2023-04-05T06:07:09.119Z,6.45
2023-04-05T06:09:30.246Z,8.60
2023-04-05T06:11:56.787Z,6.82
2023-04-05T06:14:17.493Z,7.50
2023-04-05T06:16:37.584Z,13.13
2023-04-05T06:18:58.263Z,7.70
2023-04-05T06:21:18.496Z,7.97
2023-04-05T06:23:40.395Z,8.15
2023-04-05T06:26:00.627Z,7.15
2023-04-05T06:28:20.646Z,7.80
2023-04-05T06:30:41.020Z,9.02
2023-04-05T06:33:01.410Z,8.23
2023-04-05T06:35:25.112Z,7.72
2023-04-05T06:37:45.120Z,6.20
2023-04-05T06:40:05.735Z,6.07
2023-04-05T06:42:27.764Z,6.65
2023-04-05T06:44:47.971Z,7.72
2023-04-05T06:47:08.223Z,6.75
2023-04-05T06:49:28.442Z,7.05
2023-04-05T06:51:49.392Z,7.47
2023-04-05T06:54:10.075Z,8.18
2023-04-05T06:56:30.284Z,6.82
2023-04-05T06:58:50.691Z,7.57
2023-04-05T07:01:11.480Z,7.20
2023-04-05T07:03:32.105Z,6.35
2023-04-05T07:05:53.564Z,6.88
2023-04-05T07:08:13.740Z,6.18
2023-04-05T07:10:33.924Z,5.03
2023-04-05T07:12:54.032Z,5.60
2023-04-05T07:15:14.242Z,4.22
2023-04-05T07:17:34.355Z,5.38
2023-04-05T07:19:54.513Z,4.75
2023-04-05T07:22:14.431Z,4.55
2023-04-05T07:24:34.940Z,4.13
2023-04-05T07:26:56.193Z,5.57
2023-04-05T07:29:16.346Z,4.40
2023-04-05T07:31:36.563Z,4.93
2023-04-05T07:33:57.606Z,6.13
2023-04-05T07:36:17.864Z,7.47
2023-04-05T07:38:37.783Z,5.35
2023-04-05T07:40:58.076Z,5.50
2023-04-05T07:43:21.201Z,5.25
2023-04-05T07:48:01.416Z,5.70
2023-04-05T07:50:21.478Z,5.70
2023-04-05T07:52:42.358Z,5.40
2023-04-05T07:55:03.341Z,5.28
2023-04-05T07:57:23.612Z,4.15
2023-04-05T07:59:43.763Z,4.65
2023-04-05T08:02:13.793Z,5.25
2023-04-05T08:04:35.358Z,4.35
2023-04-05T08:06:55.414Z,5.10
2023-04-05T08:09:15.908Z,4.80
2023-04-05T08:11:36.402Z,4.47
2023-04-05T08:13:56.352Z,6.47
2023-04-05T08:16:16.810Z,5.28
2023-04-05T08:18:37.267Z,5.63
2023-04-05T08:20:58.048Z,4.53
2023-04-05T08:23:18.271Z,5.97
2023-04-05T08:25:40.066Z,4.45
2023-04-05T08:28:02.218Z,4.75
2023-04-05T08:30:22.727Z,4.45
2023-04-05T08:32:43.277Z,2.97
2023-04-05T08:35:03.741Z,4.35
2023-04-05T08:37:24.205Z,6.07
2023-04-05T08:39:44.587Z,5.20
2023-04-05T08:42:09.181Z,4.30
2023-04-05T08:44:30.919Z,5.13
2023-04-05T08:46:51.036Z,6.22
2023-04-05T08:49:11.727Z,3.75
2023-04-05T08:51:32.646Z,3.47
2023-04-05T08:53:53.478Z,4.88
2023-04-05T08:56:16.477Z,4.80
2023-04-05T08:58:37.725Z,4.75
2023-04-05T09:00:58.695Z,5.00
2023-04-05T09:03:22.287Z,5.22
2023-04-05T09:05:45.391Z,4.55
2023-04-05T09:08:05.942Z,3.88
2023-04-05T09:10:27.011Z,4.20
2023-04-05T09:12:47.836Z,4.10
2023-04-05T09:15:08.466Z,4.32
2023-04-05T09:17:29.309Z,5.63
2023-04-05T09:19:49.727Z,4.22
2023-04-05T09:22:11.267Z,10.15
2023-04-05T09:24:32.734Z,4.95
2023-04-05T09:27:03.831Z,4.63
2023-04-05T09:29:30.524Z,4.78
2023-04-05T09:31:50.908Z,4.03
2023-04-05T09:34:21.377Z,5.63
2023-04-05T09:36:44.960Z,3.70
2023-04-05T09:39:06.417Z,5.53
2023-04-05T09:41:26.582Z,5.38
2023-04-05T09:43:46.880Z,4.50
2023-04-05T09:46:07.775Z,4.63
2023-04-05T09:48:47.256Z,4.97
2023-04-05T09:55:51.254Z,3.45
2023-04-05T09:58:12.438Z,4.38
2023-04-05T10:00:32.947Z,5.45
2023-04-05T10:02:56.877Z,11.18
2023-04-05T10:05:17.114Z,4.18
2023-04-05T10:07:37.946Z,5.80
2023-04-05T10:09:58.082Z,4.70
2023-04-05T10:12:28.458Z,5.38
2023-04-05T10:14:48.467Z,5.13
2023-04-05T10:17:09.769Z,4.03
2023-04-05T10:19:34.834Z,3.92
2023-04-05T10:21:55.289Z,3.95
2023-04-05T10:24:24.304Z,5.55
2023-04-05T10:27:05.806Z,4.60
2023-04-05T10:29:31.701Z,6.07
2023-04-05T10:31:59.587Z,4.40
2023-04-05T10:34:56.050Z,3.75
2023-04-05T10:37:24.270Z,4.28
2023-04-05T10:39:47.456Z,4.95
2023-04-05T10:42:11.325Z,5.78
2023-04-05T10:44:32.692Z,4.88
2023-04-05T10:46:53.360Z,4.88
2023-04-05T10:49:22.056Z,3.92
2023-04-05T10:51:43.552Z,4.88
2023-04-05T10:54:04.569Z,4.10
2023-04-05T10:56:26.419Z,3.63
2023-04-05T10:58:47.635Z,4.20
2023-04-05T11:01:09.053Z,4.18
2023-04-05T11:03:44.978Z,4.63
2023-04-05T11:06:25.188Z,4.80
2023-04-05T11:08:46.360Z,2.65
2023-04-05T11:11:07.310Z,3.72
2023-04-05T11:13:48.389Z,5.40
2023-04-05T11:16:09.377Z,6.60
2023-04-05T11:18:29.351Z,3.53
2023-04-05T11:20:51.333Z,3.88
2023-04-05T11:23:12.207Z,3.97
2023-04-05T11:25:33.771Z,4.43
2023-04-05T11:28:04.675Z,4.35
2023-04-05T11:30:44.830Z,4.50
2023-04-05T11:33:08.380Z,3.47
2023-04-05T11:35:35.054Z,4.00
2023-04-05T11:38:01.673Z,5.00
2023-04-05T11:40:27.741Z,5.28
2023-04-05T11:42:47.723Z,4.40
2023-04-05T11:45:08.643Z,3.90
2023-04-05T11:47:28.983Z,4.55
2023-04-05T11:49:49.996Z,4.15
2023-04-05T11:52:11.460Z,3.90
2023-04-05T11:54:32.834Z,4.63
2023-04-05T11:56:53.267Z,3.92
2023-04-05T11:59:14.245Z,4.43
2023-04-05T12:01:34.829Z,4.15
2023-04-05T12:03:55.936Z,4.22
2023-04-05T12:06:16.247Z,4.40
2023-04-05T12:08:55.605Z,4.38
2023-04-05T12:11:16.386Z,4.38
2023-04-05T12:13:37.074Z,3.35
2023-04-05T12:16:00.931Z,3.90
2023-04-05T12:18:21.504Z,3.88
2023-04-05T12:20:41.989Z,3.78
2023-04-05T12:23:03.576Z,4.38
2023-04-05T12:25:24.165Z,4.25
2023-04-05T12:27:44.762Z,3.63
2023-04-05T12:30:21.441Z,4.40
2023-04-05T12:32:51.095Z,3.90
2023-04-05T12:35:19.151Z,3.95
2023-04-05T12:37:40.561Z,4.40
2023-04-05T12:40:04.609Z,3.15
2023-04-05T12:42:25.230Z,4.65
2023-04-05T12:44:45.544Z,2.83
2023-04-05T12:47:10.211Z,4.20
2023-04-05T12:49:35.313Z,3.72
2023-04-05T12:52:01.252Z,4.03
2023-04-05T12:54:22.561Z,4.03
2023-04-05T12:56:43.228Z,3.35
2023-04-05T12:59:05.431Z,4.30
2023-04-05T13:01:25.857Z,4.40
2023-04-05T13:03:47.583Z,4.90
2023-04-05T13:06:09.429Z,4.55
2023-04-05T13:08:29.896Z,4.53
2023-04-05T13:10:51.095Z,3.90
2023-04-05T13:13:11.405Z,4.28
2023-04-05T13:15:31.717Z,4.00
2023-04-05T13:17:54.174Z,4.45
2023-04-05T13:20:14.121Z,4.00
2023-04-05T13:22:34.461Z,4.88
2023-04-05T13:24:54.769Z,4.05
2023-04-05T13:27:15.255Z,3.35
2023-04-05T13:29:35.250Z,3.47
2023-04-05T13:31:56.123Z,3.42
2023-04-05T13:34:16.270Z,3.35
2023-04-05T13:36:36.470Z,3.65
2023-04-05T13:38:56.663Z,2.58
2023-04-05T13:41:16.818Z,5.03
2023-04-05T13:43:37.009Z,3.10
2023-04-05T13:45:57.159Z,3.20
2023-04-05T13:48:17.384Z,3.17
2023-04-05T13:50:37.694Z,4.65
2023-04-05T13:52:57.804Z,4.70
2023-04-05T13:55:18.496Z,6.68
2023-04-05T13:57:38.881Z,4.15
2023-04-05T13:59:59.135Z,3.33
2023-04-05T14:02:24.922Z,4.18
2023-04-05T14:04:45.430Z,3.80
2023-04-05T14:07:06.226Z,3.72
2023-04-05T14:09:26.204Z,2.92
2023-04-05T14:11:46.618Z,4.28
2023-04-05T14:14:06.884Z,3.50
2023-04-05T14:16:28.086Z,5.63
2023-04-05T14:18:48.397Z,4.97
2023-04-05T14:21:08.523Z,4.32
2023-04-05T14:23:28.773Z,4.15
2023-04-05T14:25:49.021Z,3.63
2023-04-05T14:28:09.158Z,3.90
2023-04-05T14:30:30.123Z,3.05
2023-04-05T14:32:50.277Z,4.80
2023-04-05T14:35:10.552Z,3.50
2023-04-05T14:37:30.826Z,3.35
2023-04-05T14:39:51.005Z,3.53
2023-04-05T14:42:11.264Z,4.82
2023-04-05T14:44:31.493Z,5.65
2023-04-05T14:46:51.697Z,6.32
2023-04-05T14:49:11.821Z,3.58
2023-04-05T14:51:32.137Z,3.83
2023-04-05T14:53:52.094Z,4.18
2023-04-05T14:56:12.086Z,4.10
2023-04-05T14:58:33.458Z,3.85
2023-04-05T15:00:53.675Z,3.22
2023-04-05T15:03:13.865Z,3.97
2023-04-05T15:05:34.436Z,4.80
2023-04-05T15:07:54.957Z,4.10
2023-04-05T15:10:15.117Z,4.13
2023-04-05T15:12:35.311Z,4.13
2023-04-05T15:14:55.463Z,3.67
2023-04-05T15:17:15.641Z,3.85
2023-04-05T15:19:36.282Z,4.95
2023-04-05T15:21:56.235Z,4.35
2023-04-05T15:24:16.282Z,4.25
2023-04-05T15:26:36.564Z,4.45
2023-04-05T15:28:56.465Z,4.40
2023-04-05T15:31:16.705Z,4.60
2023-04-05T15:33:36.806Z,4.50
2023-04-05T15:35:57.040Z,4.55
2023-04-05T15:38:17.024Z,5.57
2023-04-05T15:40:38.991Z,4.97
2023-04-05T15:42:59.118Z,4.63
2023-04-05T15:45:19.403Z,4.85
2023-04-05T15:47:39.795Z,4.55
2023-04-05T15:50:00.237Z,4.15
2023-04-05T15:52:20.367Z,5.28
2023-04-05T15:54:40.877Z,3.95
2023-04-05T15:57:01.372Z,4.45
2023-04-05T15:59:21.713Z,4.85
2023-04-05T16:01:42.498Z,3.95
2023-04-05T16:04:03.518Z,4.53
2023-04-05T16:06:27.460Z,3.30
2023-04-05T16:08:47.450Z,4.03
2023-04-05T16:11:07.867Z,3.20
2023-04-05T16:13:28.275Z,4.60
2023-04-05T16:15:49.087Z,4.97
2023-04-05T16:18:10.544Z,5.20
2023-04-05T16:20:31.031Z,4.60
2023-04-05T16:22:52.134Z,3.45
2023-04-05T16:25:12.269Z,4.93
2023-04-05T16:27:33.046Z,4.10
2023-04-05T16:29:53.327Z,7.05
2023-04-05T16:32:13.708Z,4.15
2023-04-05T16:34:33.829Z,7.07
2023-04-05T16:36:54.025Z,4.68
2023-04-05T16:39:14.045Z,6.65
2023-04-05T16:41:35.623Z,6.18
2023-04-05T16:43:55.925Z,5.97
2023-04-05T16:46:16.902Z,6.40
2023-04-05T16:48:37.060Z,5.40
2023-04-05T16:50:57.360Z,7.07
2023-04-05T16:53:17.546Z,6.40
2023-04-05T16:55:37.753Z,7.13
2023-04-05T16:57:57.961Z,7.15
2023-04-05T17:00:18.357Z,8.20
2023-04-05T17:02:39.198Z,5.78
2023-04-05T17:04:59.596Z,9.80
2023-04-05T17:07:20.498Z,5.95
2023-04-05T17:09:40.854Z,8.93
2023-04-05T17:12:00.947Z,6.68
2023-04-05T17:14:21.134Z,8.70
2023-04-05T17:16:41.918Z,8.88
2023-04-05T17:19:02.433Z,6.75
2023-04-05T17:21:23.357Z,7.43
2023-04-05T17:23:43.701Z,8.68
2023-04-05T17:26:04.090Z,8.70
2023-04-05T17:28:24.309Z,7.55
2023-04-05T17:30:44.522Z,7.97
2023-04-05T17:33:05.341Z,7.03
2023-04-05T17:35:25.792Z,6.05
2023-04-05T17:37:46.855Z,6.32
2023-04-05T17:40:07.684Z,9.18
2023-04-05T17:42:28.303Z,6.38
2023-04-05T17:44:48.734Z,6.70
2023-04-05T17:47:09.949Z,7.70
2023-04-05T17:49:30.608Z,7.03
2023-04-05T17:51:50.730Z,19.27
2023-04-05T17:54:11.769Z,30.52
2023-04-05T17:56:32.051Z,20.27
2023-04-05T17:58:53.095Z,9.75
2023-04-05T18:01:13.941Z,7.72
2023-04-05T18:03:34.327Z,9.35
2023-04-05T18:05:55.157Z,9.10
2023-04-05T18:08:15.726Z,7.20
2023-04-05T18:10:36.118Z,7.47
2023-04-05T18:12:56.368Z,6.15
2023-04-05T18:15:17.744Z,6.88
2023-04-05T18:17:39.848Z,6.93
2023-04-05T18:20:00.182Z,7.13
2023-04-05T18:22:20.465Z,7.68
2023-04-05T18:24:41.596Z,7.03
2023-04-05T18:27:01.838Z,8.35
2023-04-05T18:29:27.458Z,14.43
2023-04-05T18:31:47.898Z,7.53
2023-04-05T18:34:08.090Z,6.32
2023-04-05T18:36:28.096Z,6.55
2023-04-05T18:38:48.188Z,8.88
2023-04-05T18:41:09.156Z,7.55
2023-04-05T18:43:29.737Z,9.43
2023-04-05T18:45:53.766Z,14.02
2023-04-05T18:48:14.730Z,13.13
2023-04-05T18:50:35.706Z,12.32
2023-04-05T18:52:55.974Z,8.18
2023-04-05T18:55:16.341Z,6.82
2023-04-05T18:57:36.292Z,7.65
2023-04-05T18:59:56.288Z,7.13
2023-04-05T19:02:16.343Z,6.68
2023-04-05T19:04:36.440Z,7.30
2023-04-05T19:06:57.219Z,6.45
2023-04-05T19:09:17.496Z,7.55
2023-04-05T19:11:37.730Z,11.38
2023-04-05T19:13:59.787Z,14.50
2023-04-05T19:16:20.302Z,11.55
2023-04-05T19:18:40.590Z,12.15
2023-04-05T19:21:00.956Z,12.15
2023-04-05T19:23:21.485Z,14.27
2023-04-05T19:25:41.450Z,13.38
2023-04-05T19:28:02.049Z,10.88
2023-04-05T19:30:22.286Z,12.43
2023-04-05T19:32:42.535Z,9.60
2023-04-05T19:35:03.269Z,17.33
2023-04-05T19:37:23.674Z,13.02
2023-04-05T19:39:45.070Z,12.88
2023-04-05T19:42:05.778Z,11.90
2023-04-05T19:44:44.492Z,12.05
2023-04-05T19:47:07.472Z,11.98
2023-04-05T19:49:32.432Z,18.00
2023-04-05T19:51:55.498Z,15.45
2023-04-05T19:54:18.456Z,15.57
2023-04-05T19:56:38.956Z,13.70
2023-04-05T19:59:00.507Z,14.68
2023-04-05T20:01:33.152Z,14.07
2023-04-05T20:03:53.518Z,13.75
2023-04-05T20:06:14.113Z,13.65
2023-04-05T20:08:35.797Z,13.10
2023-04-05T20:10:56.561Z,12.55
2023-04-05T20:13:17.171Z,14.48
2023-04-05T20:15:38.849Z,15.68
2023-04-05T20:17:59.107Z,15.50
2023-04-05T20:20:19.162Z,13.02
2023-04-05T20:22:39.394Z,11.15
2023-04-05T20:24:59.700Z,12.00
2023-04-05T20:27:19.890Z,14.32
2023-04-05T20:29:41.128Z,12.60
2023-04-05T20:32:01.396Z,11.18
2023-04-05T20:34:27.218Z,15.63
2023-04-05T20:36:48.633Z,11.00
2023-04-05T20:39:09.082Z,9.52
2023-04-05T20:41:30.777Z,9.80
2023-04-05T20:43:51.236Z,11.98
2023-04-05T20:46:12.064Z,12.20
2023-04-05T20:48:33.418Z,12.40
2023-04-05T20:50:53.702Z,13.85
2023-04-05T20:53:14.302Z,18.25
2023-04-05T20:55:34.492Z,14.40
2023-04-05T20:57:54.843Z,12.05
2023-04-05T21:00:15.784Z,12.07
2023-04-05T21:02:36.537Z,13.13
2023-04-05T21:04:57.460Z,13.18
2023-04-05T21:07:17.756Z,12.00
2023-04-05T21:09:37.871Z,9.98
2023-04-05T21:11:58.064Z,10.20
2023-04-05T21:14:18.361Z,13.43
2023-04-05T21:16:38.412Z,11.45
2023-04-05T21:18:58.896Z,10.85
2023-04-05T21:21:19.094Z,11.65
2023-04-05T21:23:39.393Z,11.65
2023-04-05T21:25:59.762Z,12.82
2023-04-05T21:28:19.970Z,13.07
2023-04-05T21:30:40.251Z,13.45
2023-04-05T21:33:00.750Z,11.77
2023-04-05T21:35:21.856Z,13.00
2023-04-05T21:37:42.013Z,12.30
2023-04-05T21:40:03.434Z,12.50
2023-04-05T21:42:23.548Z,11.55
2023-04-05T21:44:43.614Z,10.13
2023-04-05T21:47:03.918Z,9.50
2023-04-05T21:49:24.281Z,10.13
2023-04-05T21:51:44.625Z,11.35
2023-04-05T21:54:04.690Z,12.38
2023-04-05T21:56:24.777Z,12.45
2023-04-05T21:58:45.040Z,11.70
2023-04-05T22:01:05.227Z,12.02
2023-04-05T22:03:25.944Z,13.32
2023-04-05T22:05:45.876Z,14.15
2023-04-05T22:08:07.049Z,13.95
2023-04-05T22:10:28.311Z,13.65
2023-04-05T22:12:48.768Z,15.18
2023-04-05T22:15:09.416Z,15.27
2023-04-05T22:17:29.826Z,16.05
2023-04-05T22:19:50.305Z,15.15
2023-04-05T22:22:12.383Z,16.98
2023-04-05T22:24:32.257Z,14.00
2023-04-05T22:26:53.025Z,14.50
2023-04-05T22:29:12.953Z,14.85
2023-04-05T22:31:33.348Z,14.60
2023-04-05T22:33:53.540Z,13.30
2023-04-05T22:36:13.867Z,13.70
2023-04-05T22:38:34.003Z,14.98
2023-04-05T22:40:54.250Z,13.13
2023-04-05T22:43:14.464Z,14.98
2023-04-05T22:45:34.590Z,14.57
2023-04-05T22:47:55.544Z,13.20
2023-04-05T22:50:16.867Z,13.80
2023-04-05T22:52:36.957Z,12.43
2023-04-05T22:54:57.339Z,13.07
2023-04-05T22:57:17.473Z,12.70
2023-04-05T22:59:37.868Z,12.75
2023-04-05T23:01:58.190Z,13.60
2023-04-05T23:04:18.630Z,13.85
2023-04-05T23:06:39.191Z,12.40
2023-04-05T23:09:01.052Z,12.70
2023-04-05T23:11:21.496Z,12.50
2023-04-05T23:13:41.755Z,12.82
2023-04-05T23:16:01.947Z,12.75
2023-04-05T23:18:22.332Z,11.70
2023-04-05T23:20:42.440Z,13.98
2023-04-05T23:23:02.518Z,13.85
2023-04-05T23:25:23.404Z,12.88
2023-04-05T23:27:43.489Z,13.15
2023-04-05T23:30:03.869Z,13.88
2023-04-05T23:32:24.734Z,12.68
2023-04-05T23:34:45.457Z,11.25
2023-04-05T23:37:05.466Z,12.73
2023-04-05T23:39:26.157Z,11.35
2023-04-05T23:41:46.517Z,12.63
2023-04-05T23:44:06.723Z,13.07
2023-04-05T23:46:26.991Z,13.60
2023-04-05T23:48:46.948Z,13.30
2023-04-05T23:51:07.281Z,13.50
2023-04-05T23:53:27.581Z,12.10
2023-04-05T23:55:48.760Z,12.60
2023-04-05T23:58:08.899Z,11.50
